sensor_id;sensor_type;location;lat;lon;timestamp;P1;durP1;ratioP1;P2;durP2;ratioP2
63016;SDS011;50274;45.640;11.756;2023-03-01T00:02:05;9.02;;;4.53;;
63016;SDS011;50274;45.640;11.756;2023-03-01T00:04:31;9.80;;;4.80;;
63016;SDS011;50274;45.640;11.756;2023-03-01T00:06:57;9.63;;;5.03;;
63016;SDS011;50274;45.640;11.756;2023-03-01T00:09:23;11.73;;;4.80;;
63016;SDS011;50274;45.640;11.756;2023-03-01T00:11:49;10.85;;;4.93;;
63016;SDS011;50274;45.640;11.756;2023-03-01T00:14:15;11.05;;;4.88;;
63016;SDS011;50274;45.640;11.756;2023-03-01T00:16:44;10.63;;;4.60;;
63016;SDS011;50274;45.640;11.756;2023-03-01T00:19:12;10.88;;;5.30;;
63016;SDS011;50274;45.640;11.756;2023-03-01T00:21:39;10.48;;;4.78;;
63016;SDS011;50274;45.640;11.756;2023-03-01T00:24:05;10.75;;;4.82;;
63016;SDS011;50274;45.640;11.756;2023-03-01T00:26:32;10.80;;;5.13;;
63016;SDS011;50274;45.640;11.756;2023-03-01T00:28:58;9.73;;;4.90;;
63016;SDS011;50274;45.640;11.756;2023-03-01T00:31:27;10.10;;;5.03;;
63016;SDS011;50274;45.640;11.756;2023-03-01T00:33:55;10.23;;;4.65;;
63016;SDS011;50274;45.640;11.756;2023-03-01T00:36:24;11.07;;;5.07;;
63016;SDS011;50274;45.640;11.756;2023-03-01T00:38:53;10.53;;;4.90;;
63016;SDS011;50274;45.640;11.756;2023-03-01T00:41:19;11.38;;;5.38;;
63016;SDS011;50274;45.640;11.756;2023-03-01T00:43:48;10.85;;;5.43;;
63016;SDS011;50274;45.640;11.756;2023-03-01T00:46:16;12.93;;;5.20;;
63016;SDS011;50274;45.640;11.756;2023-03-01T00:48:44;12.88;;;5.97;;
63016;SDS011;50274;45.640;11.756;2023-03-01T00:51:11;11.60;;;4.90;;
63016;SDS011;50274;45.640;11.756;2023-03-01T00:53:39;11.75;;;5.70;;
63016;SDS011;50274;45.640;11.756;2023-03-01T00:56:06;13.05;;;5.32;;
63016;SDS011;50274;45.640;11.756;2023-03-01T00:58:33;10.70;;;5.20;;
63016;SDS011;50274;45.640;11.756;2023-03-01T01:00:59;14.32;;;5.78;;
63016;SDS011;50274;45.640;11.756;2023-03-01T01:03:26;12.67;;;5.60;;
63016;SDS011;50274;45.640;11.756;2023-03-01T01:05:52;11.93;;;5.57;;
63016;SDS011;50274;45.640;11.756;2023-03-01T01:08:19;11.18;;;5.68;;
63016;SDS011;50274;45.640;11.756;2023-03-01T01:10:45;10.68;;;5.40;;
63016;SDS011;50274;45.640;11.756;2023-03-01T01:13:12;13.07;;;6.00;;
63016;SDS011;50274;45.640;11.756;2023-03-01T01:15:38;12.70;;;6.13;;
63016;SDS011;50274;45.640;11.756;2023-03-01T01:18:04;12.65;;;6.45;;
63016;SDS011;50274;45.640;11.756;2023-03-01T01:20:30;15.13;;;7.10;;
63016;SDS011;50274;45.640;11.756;2023-03-01T01:22:57;15.65;;;6.97;;
63016;SDS011;50274;45.640;11.756;2023-03-01T01:25:23;15.90;;;6.80;;
63016;SDS011;50274;45.640;11.756;2023-03-01T01:27:50;13.82;;;6.82;;
63016;SDS011;50274;45.640;11.756;2023-03-01T01:30:16;12.60;;;6.50;;
63016;SDS011;50274;45.640;11.756;2023-03-01T01:32:42;13.65;;;6.57;;
63016;SDS011;50274;45.640;11.756;2023-03-01T01:35:08;11.77;;;6.07;;
63016;SDS011;50274;45.640;11.756;2023-03-01T01:37:34;12.68;;;5.80;;
63016;SDS011;50274;45.640;11.756;2023-03-01T01:40:00;14.95;;;6.63;;
63016;SDS011;50274;45.640;11.756;2023-03-01T01:42:29;13.23;;;5.83;;
63016;SDS011;50274;45.640;11.756;2023-03-01T01:48:02;15.05;;;6.55;;
63016;SDS011;50274;45.640;11.756;2023-03-01T01:50:32;11.45;;;6.15;;
63016;SDS011;50274;45.640;11.756;2023-03-01T01:53:09;11.73;;;5.82;;
63016;SDS011;50274;45.640;11.756;2023-03-01T01:55:44;11.87;;;6.10;;
63016;SDS011;50274;45.640;11.756;2023-03-01T01:58:13;14.05;;;5.90;;
63016;SDS011;50274;45.640;11.756;2023-03-01T02:00:42;11.63;;;5.45;;
63016;SDS011;50274;45.640;11.756;2023-03-01T02:03:10;11.90;;;6.05;;
63016;SDS011;50274;45.640;11.756;2023-03-01T02:06:21;12.68;;;6.20;;
63016;SDS011;50274;45.640;11.756;2023-03-01T02:08:28;11.97;;;5.60;;
63016;SDS011;50274;45.640;11.756;2023-03-01T02:10:56;11.38;;;5.65;;
63016;SDS011;50274;45.640;11.756;2023-03-01T02:13:25;11.38;;;5.28;;
63016;SDS011;50274;45.640;11.756;2023-03-01T02:15:51;11.30;;;5.53;;
63016;SDS011;50274;45.640;11.756;2023-03-01T02:18:18;12.68;;;5.72;;
63016;SDS011;50274;45.640;11.756;2023-03-01T02:23:28;11.52;;;5.38;;
63016;SDS011;50274;45.640;11.756;2023-03-01T02:28:29;12.65;;;5.63;;
63016;SDS011;50274;45.640;11.756;2023-03-01T02:30:56;16.58;;;6.80;;
63016;SDS011;50274;45.640;11.756;2023-03-01T02:33:41;12.43;;;5.80;;
63016;SDS011;50274;45.640;11.756;2023-03-01T02:36:09;11.65;;;5.32;;
63016;SDS011;50274;45.640;11.756;2023-03-01T02:38:47;14.18;;;5.90;;
63016;SDS011;50274;45.640;11.756;2023-03-01T02:41:15;13.52;;;6.03;;
63016;SDS011;50274;45.640;11.756;2023-03-01T02:43:44;13.00;;;6.20;;
63016;SDS011;50274;45.640;11.756;2023-03-01T02:46:15;10.17;;;5.57;;
63016;SDS011;50274;45.640;11.756;2023-03-01T02:48:48;13.52;;;5.78;;
63016;SDS011;50274;45.640;11.756;2023-03-01T02:54:08;14.52;;;6.50;;
63016;SDS011;50274;45.640;11.756;2023-03-01T02:56:48;13.48;;;6.35;;
63016;SDS011;50274;45.640;11.756;2023-03-01T02:59:15;13.60;;;5.93;;
63016;SDS011;50274;45.640;11.756;2023-03-01T03:01:43;12.18;;;5.47;;
63016;SDS011;50274;45.640;11.756;2023-03-01T03:04:10;11.73;;;5.82;;
63016;SDS011;50274;45.640;11.756;2023-03-01T03:06:42;13.33;;;5.97;;
63016;SDS011;50274;45.640;11.756;2023-03-01T03:09:11;11.10;;;5.40;;
63016;SDS011;50274;45.640;11.756;2023-03-01T03:11:38;11.40;;;5.55;;
63016;SDS011;50274;45.640;11.756;2023-03-01T03:14:06;11.75;;;5.00;;
63016;SDS011;50274;45.640;11.756;2023-03-01T03:16:47;10.23;;;5.07;;
63016;SDS011;50274;45.640;11.756;2023-03-01T03:19:15;9.57;;;4.07;;
63016;SDS011;50274;45.640;11.756;2023-03-01T03:21:41;9.68;;;4.68;;
63016;SDS011;50274;45.640;11.756;2023-03-01T03:24:07;12.95;;;5.47;;
63016;SDS011;50274;45.640;11.756;2023-03-01T03:26:33;10.23;;;5.23;;
63016;SDS011;50274;45.640;11.756;2023-03-01T03:28:59;13.07;;;5.85;;
63016;SDS011;50274;45.640;11.756;2023-03-01T03:31:25;12.85;;;6.03;;
63016;SDS011;50274;45.640;11.756;2023-03-01T03:33:51;12.48;;;5.60;;
63016;SDS011;50274;45.640;11.756;2023-03-01T03:36:18;10.40;;;4.97;;
63016;SDS011;50274;45.640;11.756;2023-03-01T03:38:46;11.52;;;5.40;;
63016;SDS011;50274;45.640;11.756;2023-03-01T03:41:12;11.55;;;5.65;;
63016;SDS011;50274;45.640;11.756;2023-03-01T03:43:39;11.75;;;4.97;;
63016;SDS011;50274;45.640;11.756;2023-03-01T03:46:07;11.23;;;5.53;;
63016;SDS011;50274;45.640;11.756;2023-03-01T03:48:35;12.40;;;5.72;;
63016;SDS011;50274;45.640;11.756;2023-03-01T03:51:02;11.35;;;5.50;;
63016;SDS011;50274;45.640;11.756;2023-03-01T03:53:31;11.98;;;5.07;;
63016;SDS011;50274;45.640;11.756;2023-03-01T03:55:57;10.50;;;4.90;;
63016;SDS011;50274;45.640;11.756;2023-03-01T03:58:23;9.67;;;4.30;;
63016;SDS011;50274;45.640;11.756;2023-03-01T04:00:54;10.63;;;4.95;;
63016;SDS011;50274;45.640;11.756;2023-03-01T04:03:22;9.95;;;4.50;;
63016;SDS011;50274;45.640;11.756;2023-03-01T04:05:49;9.55;;;4.78;;
63016;SDS011;50274;45.640;11.756;2023-03-01T04:08:15;10.55;;;4.78;;
63016;SDS011;50274;45.640;11.756;2023-03-01T04:10:45;9.40;;;4.37;;
63016;SDS011;50274;45.640;11.756;2023-03-01T04:13:14;10.18;;;4.60;;
63016;SDS011;50274;45.640;11.756;2023-03-01T04:15:42;10.77;;;4.50;;
63016;SDS011;50274;45.640;11.756;2023-03-01T04:18:08;9.82;;;4.50;;
63016;SDS011;50274;45.640;11.756;2023-03-01T04:20:37;8.23;;;4.15;;
63016;SDS011;50274;45.640;11.756;2023-03-01T04:23:07;10.43;;;4.30;;
63016;SDS011;50274;45.640;11.756;2023-03-01T04:25:41;8.43;;;3.80;;
63016;SDS011;50274;45.640;11.756;2023-03-01T04:28:20;9.43;;;4.57;;
63016;SDS011;50274;45.640;11.756;2023-03-01T04:30:49;9.07;;;4.18;;
63016;SDS011;50274;45.640;11.756;2023-03-01T04:33:15;9.05;;;4.65;;
63016;SDS011;50274;45.640;11.756;2023-03-01T04:35:41;10.73;;;4.50;;
63016;SDS011;50274;45.640;11.756;2023-03-01T04:38:07;10.13;;;4.85;;
63016;SDS011;50274;45.640;11.756;2023-03-01T04:40:34;12.27;;;5.07;;
63016;SDS011;50274;45.640;11.756;2023-03-01T04:43:00;11.60;;;5.37;;
63016;SDS011;50274;45.640;11.756;2023-03-01T04:45:27;10.27;;;4.85;;
63016;SDS011;50274;45.640;11.756;2023-03-01T04:47:53;11.20;;;4.95;;
63016;SDS011;50274;45.640;11.756;2023-03-01T04:50:19;11.27;;;4.82;;
63016;SDS011;50274;45.640;11.756;2023-03-01T04:52:48;9.95;;;4.38;;
63016;SDS011;50274;45.640;11.756;2023-03-01T04:55:14;10.37;;;4.37;;
63016;SDS011;50274;45.640;11.756;2023-03-01T04:57:40;9.57;;;4.20;;
63016;SDS011;50274;45.640;11.756;2023-03-01T05:00:07;9.88;;;4.20;;
63016;SDS011;50274;45.640;11.756;2023-03-01T05:02:59;8.25;;;3.72;;
63016;SDS011;50274;45.640;11.756;2023-03-01T05:05:26;10.68;;;4.90;;
63016;SDS011;50274;45.640;11.756;2023-03-01T05:07:55;10.53;;;3.80;;
63016;SDS011;50274;45.640;11.756;2023-03-01T05:10:25;10.77;;;4.15;;
63016;SDS011;50274;45.640;11.756;2023-03-01T05:12:54;10.55;;;4.30;;
63016;SDS011;50274;45.640;11.756;2023-03-01T05:15:22;10.23;;;4.45;;
63016;SDS011;50274;45.640;11.756;2023-03-01T05:17:50;9.70;;;4.93;;
63016;SDS011;50274;45.640;11.756;2023-03-01T05:20:17;9.80;;;4.67;;
63016;SDS011;50274;45.640;11.756;2023-03-01T05:22:48;10.50;;;4.90;;
63016;SDS011;50274;45.640;11.756;2023-03-01T05:25:14;9.63;;;4.68;;
63016;SDS011;50274;45.640;11.756;2023-03-01T05:27:41;13.10;;;5.13;;
63016;SDS011;50274;45.640;11.756;2023-03-01T05:30:07;9.73;;;4.73;;
63016;SDS011;50274;45.640;11.756;2023-03-01T05:32:46;9.43;;;4.43;;
63016;SDS011;50274;45.640;11.756;2023-03-01T05:35:14;10.18;;;4.97;;
63016;SDS011;50274;45.640;11.756;2023-03-01T05:37:45;12.13;;;4.57;;
63016;SDS011;50274;45.640;11.756;2023-03-01T05:40:14;8.52;;;4.10;;
63016;SDS011;50274;45.640;11.756;2023-03-01T05:42:45;11.70;;;3.60;;
63016;SDS011;50274;45.640;11.756;2023-03-01T05:45:13;9.02;;;4.03;;
63016;SDS011;50274;45.640;11.756;2023-03-01T05:47:40;9.55;;;3.85;;
63016;SDS011;50274;45.640;11.756;2023-03-01T05:50:31;10.30;;;4.28;;
63016;SDS011;50274;45.640;11.756;2023-03-01T05:52:58;13.52;;;6.18;;
63016;SDS011;50274;45.640;11.756;2023-03-01T05:55:28;11.80;;;5.77;;
63016;SDS011;50274;45.640;11.756;2023-03-01T05:57:59;13.38;;;5.88;;
63016;SDS011;50274;45.640;11.756;2023-03-01T06:00:30;11.93;;;5.45;;
63016;SDS011;50274;45.640;11.756;2023-03-01T06:02:56;14.32;;;7.07;;
63016;SDS011;50274;45.640;11.756;2023-03-01T06:05:23;11.30;;;5.57;;
63016;SDS011;50274;45.640;11.756;2023-03-01T06:07:50;10.23;;;4.90;;
63016;SDS011;50274;45.640;11.756;2023-03-01T06:10:17;11.30;;;5.57;;
63016;SDS011;50274;45.640;11.756;2023-03-01T06:12:44;14.27;;;6.50;;
63016;SDS011;50274;45.640;11.756;2023-03-01T06:15:11;12.50;;;6.00;;
63016;SDS011;50274;45.640;11.756;2023-03-01T06:17:40;15.57;;;6.73;;
63016;SDS011;50274;45.640;11.756;2023-03-01T06:20:29;15.70;;;7.40;;
63016;SDS011;50274;45.640;11.756;2023-03-01T06:22:54;53.70;;;24.08;;
63016;SDS011;50274;45.640;11.756;2023-03-01T06:25:24;52.72;;;31.15;;
63016;SDS011;50274;45.640;11.756;2023-03-01T06:27:56;31.98;;;18.75;;
63016;SDS011;50274;45.640;11.756;2023-03-01T06:30:22;23.00;;;12.60;;
63016;SDS011;50274;45.640;11.756;2023-03-01T06:32:50;16.42;;;9.30;;
63016;SDS011;50274;45.640;11.756;2023-03-01T06:35:27;15.55;;;8.00;;
63016;SDS011;50274;45.640;11.756;2023-03-01T06:38:19;13.30;;;7.07;;
63016;SDS011;50274;45.640;11.756;2023-03-01T06:40:56;15.18;;;7.18;;
63016;SDS011;50274;45.640;11.756;2023-03-01T06:43:22;22.60;;;7.57;;
63016;SDS011;50274;45.640;11.756;2023-03-01T06:45:49;14.25;;;8.13;;
63016;SDS011;50274;45.640;11.756;2023-03-01T06:48:15;15.35;;;8.63;;
63016;SDS011;50274;45.640;11.756;2023-03-01T06:50:40;13.57;;;7.03;;
63016;SDS011;50274;45.640;11.756;2023-03-01T06:53:06;11.83;;;6.60;;
63016;SDS011;50274;45.640;11.756;2023-03-01T06:55:32;13.15;;;6.88;;
63016;SDS011;50274;45.640;11.756;2023-03-01T06:57:59;12.85;;;6.65;;
63016;SDS011;50274;45.640;11.756;2023-03-01T07:00:26;13.07;;;6.77;;
63016;SDS011;50274;45.640;11.756;2023-03-01T07:02:52;14.18;;;6.72;;
63016;SDS011;50274;45.640;11.756;2023-03-01T07:05:19;14.55;;;7.40;;
63016;SDS011;50274;45.640;11.756;2023-03-01T07:07:45;14.30;;;6.30;;
63016;SDS011;50274;45.640;11.756;2023-03-01T07:10:11;16.63;;;7.47;;
63016;SDS011;50274;45.640;11.756;2023-03-01T07:12:37;15.25;;;8.07;;
63016;SDS011;50274;45.640;11.756;2023-03-01T07:15:03;16.27;;;9.93;;
63016;SDS011;50274;45.640;11.756;2023-03-01T07:17:30;18.13;;;10.90;;
63016;SDS011;50274;45.640;11.756;2023-03-01T07:19:56;14.27;;;7.57;;
63016;SDS011;50274;45.640;11.756;2023-03-01T07:22:22;16.55;;;8.38;;
63016;SDS011;50274;45.640;11.756;2023-03-01T07:24:48;13.85;;;8.23;;
63016;SDS011;50274;45.640;11.756;2023-03-01T07:27:14;14.17;;;7.80;;
63016;SDS011;50274;45.640;11.756;2023-03-01T07:29:39;16.48;;;8.25;;
63016;SDS011;50274;45.640;11.756;2023-03-01T07:32:05;14.20;;;7.40;;
63016;SDS011;50274;45.640;11.756;2023-03-01T07:34:31;16.43;;;8.00;;
63016;SDS011;50274;45.640;11.756;2023-03-01T07:36:57;16.77;;;10.45;;
63016;SDS011;50274;45.640;11.756;2023-03-01T07:39:23;19.73;;;12.73;;
63016;SDS011;50274;45.640;11.756;2023-03-01T07:41:49;15.40;;;9.63;;
63016;SDS011;50274;45.640;11.756;2023-03-01T07:44:15;14.68;;;9.35;;
63016;SDS011;50274;45.640;11.756;2023-03-01T07:46:42;18.15;;;9.27;;
63016;SDS011;50274;45.640;11.756;2023-03-01T07:49:09;14.90;;;7.68;;
63016;SDS011;50274;45.640;11.756;2023-03-01T07:51:35;15.90;;;7.75;;
63016;SDS011;50274;45.640;11.756;2023-03-01T07:54:01;13.50;;;7.43;;
63016;SDS011;50274;45.640;11.756;2023-03-01T07:56:27;13.73;;;6.43;;
63016;SDS011;50274;45.640;11.756;2023-03-01T07:58:53;14.32;;;6.50;;
63016;SDS011;50274;45.640;11.756;2023-03-01T08:01:19;12.17;;;6.43;;
63016;SDS011;50274;45.640;11.756;2023-03-01T08:03:46;12.60;;;6.38;;
63016;SDS011;50274;45.640;11.756;2023-03-01T08:06:13;13.00;;;6.75;;
63016;SDS011;50274;45.640;11.756;2023-03-01T08:08:42;13.48;;;6.32;;
63016;SDS011;50274;45.640;11.756;2023-03-01T08:11:10;13.13;;;6.43;;
63016;SDS011;50274;45.640;11.756;2023-03-01T08:13:37;14.47;;;6.73;;
63016;SDS011;50274;45.640;11.756;2023-03-01T08:16:04;12.52;;;6.20;;
63016;SDS011;50274;45.640;11.756;2023-03-01T08:18:31;12.98;;;7.22;;
63016;SDS011;50274;45.640;11.756;2023-03-01T08:21:01;13.57;;;6.65;;
63016;SDS011;50274;45.640;11.756;2023-03-01T08:23:31;12.40;;;6.90;;
63016;SDS011;50274;45.640;11.756;2023-03-01T08:26:19;12.00;;;5.60;;
63016;SDS011;50274;45.640;11.756;2023-03-01T08:28:45;11.98;;;5.20;;
63016;SDS011;50274;45.640;11.756;2023-03-01T08:31:19;12.15;;;5.55;;
63016;SDS011;50274;45.640;11.756;2023-03-01T08:33:48;12.40;;;5.33;;
63016;SDS011;50274;45.640;11.756;2023-03-01T08:36:23;11.40;;;6.22;;
63016;SDS011;50274;45.640;11.756;2023-03-01T08:38:54;11.85;;;5.55;;
63016;SDS011;50274;45.640;11.756;2023-03-01T08:41:20;12.57;;;5.40;;
63016;SDS011;50274;45.640;11.756;2023-03-01T08:43:46;10.50;;;4.63;;
63016;SDS011;50274;45.640;11.756;2023-03-01T08:46:12;11.23;;;5.37;;
63016;SDS011;50274;45.640;11.756;2023-03-01T08:48:39;10.15;;;5.32;;
63016;SDS011;50274;45.640;11.756;2023-03-01T08:51:09;11.55;;;5.70;;
63016;SDS011;50274;45.640;11.756;2023-03-01T08:53:36;16.10;;;6.22;;
63016;SDS011;50274;45.640;11.756;2023-03-01T08:56:02;13.60;;;5.47;;
63016;SDS011;50274;45.640;11.756;2023-03-01T08:58:29;11.07;;;4.65;;
63016;SDS011;50274;45.640;11.756;2023-03-01T09:00:55;9.90;;;5.50;;
63016;SDS011;50274;45.640;11.756;2023-03-01T09:03:22;10.60;;;5.45;;
63016;SDS011;50274;45.640;11.756;2023-03-01T09:05:49;10.73;;;5.30;;
63016;SDS011;50274;45.640;11.756;2023-03-01T09:08:16;9.55;;;4.80;;
63016;SDS011;50274;45.640;11.756;2023-03-01T09:10:42;11.02;;;5.20;;
63016;SDS011;50274;45.640;11.756;2023-03-01T09:13:09;9.50;;;4.45;;
63016;SDS011;50274;45.640;11.756;2023-03-01T09:15:37;11.63;;;4.72;;
63016;SDS011;50274;45.640;11.756;2023-03-01T09:18:04;8.87;;;4.23;;
63016;SDS011;50274;45.640;11.756;2023-03-01T09:20:30;8.82;;;4.10;;
63016;SDS011;50274;45.640;11.756;2023-03-01T09:22:57;9.77;;;4.10;;
63016;SDS011;50274;45.640;11.756;2023-03-01T09:25:24;7.90;;;3.80;;
63016;SDS011;50274;45.640;11.756;2023-03-01T09:27:51;9.15;;;3.88;;
63016;SDS011;50274;45.640;11.756;2023-03-01T09:30:17;10.77;;;4.00;;
63016;SDS011;50274;45.640;11.756;2023-03-01T09:32:44;7.78;;;3.70;;
63016;SDS011;50274;45.640;11.756;2023-03-01T09:35:10;7.07;;;3.05;;
63016;SDS011;50274;45.640;11.756;2023-03-01T09:37:37;7.55;;;3.45;;
63016;SDS011;50274;45.640;11.756;2023-03-01T09:40:08;10.73;;;3.67;;
63016;SDS011;50274;45.640;11.756;2023-03-01T09:45:43;8.68;;;3.83;;
63016;SDS011;50274;45.640;11.756;2023-03-01T09:48:16;7.80;;;3.53;;
63016;SDS011;50274;45.640;11.756;2023-03-01T09:50:43;8.20;;;3.60;;
63016;SDS011;50274;45.640;11.756;2023-03-01T09:53:22;9.60;;;3.65;;
63016;SDS011;50274;45.640;11.756;2023-03-01T10:09:39;9.27;;;3.70;;
63016;SDS011;50274;45.640;11.756;2023-03-01T10:12:15;8.13;;;3.50;;
63016;SDS011;50274;45.640;11.756;2023-03-01T10:15:17;7.68;;;3.40;;
63016;SDS011;50274;45.640;11.756;2023-03-01T10:17:55;10.32;;;3.33;;
63016;SDS011;50274;45.640;11.756;2023-03-01T10:20:28;9.50;;;3.25;;
63016;SDS011;50274;45.640;11.756;2023-03-01T10:23:01;12.00;;;3.40;;
63016;SDS011;50274;45.640;11.756;2023-03-01T10:28:20;8.18;;;3.03;;
63016;SDS011;50274;45.640;11.756;2023-03-01T10:30:50;9.45;;;3.22;;
63016;SDS011;50274;45.640;11.756;2023-03-01T10:35:48;7.83;;;2.90;;
63016;SDS011;50274;45.640;11.756;2023-03-01T10:38:15;9.23;;;2.90;;
63016;SDS011;50274;45.640;11.756;2023-03-01T10:40:55;7.00;;;2.78;;
63016;SDS011;50274;45.640;11.756;2023-03-01T10:43:26;7.45;;;3.20;;
63016;SDS011;50274;45.640;11.756;2023-03-01T10:46:16;9.45;;;3.05;;
63016;SDS011;50274;45.640;11.756;2023-03-01T10:49:02;8.20;;;2.87;;
63016;SDS011;50274;45.640;11.756;2023-03-01T10:51:32;9.45;;;2.70;;
63016;SDS011;50274;45.640;11.756;2023-03-01T10:53:58;10.02;;;3.33;;
63016;SDS011;50274;45.640;11.756;2023-03-01T10:56:24;8.18;;;2.90;;
63016;SDS011;50274;45.640;11.756;2023-03-01T10:59:00;12.90;;;3.00;;
63016;SDS011;50274;45.640;11.756;2023-03-01T11:01:34;10.07;;;3.88;;
63016;SDS011;50274;45.640;11.756;2023-03-01T11:06:33;10.10;;;3.42;;
63016;SDS011;50274;45.640;11.756;2023-03-01T11:09:33;14.55;;;3.10;;
63016;SDS011;50274;45.640;11.756;2023-03-01T11:11:57;9.47;;;3.57;;
63016;SDS011;50274;45.640;11.756;2023-03-01T11:15:08;10.18;;;3.10;;
63016;SDS011;50274;45.640;11.756;2023-03-01T11:20:05;11.20;;;3.47;;
63016;SDS011;50274;45.640;11.756;2023-03-01T11:22:40;10.50;;;4.25;;
63016;SDS011;50274;45.640;11.756;2023-03-01T11:25:15;11.80;;;3.97;;
63016;SDS011;50274;45.640;11.756;2023-03-01T11:27:44;10.73;;;3.63;;
63016;SDS011;50274;45.640;11.756;2023-03-01T11:30:19;12.35;;;3.78;;
63016;SDS011;50274;45.640;11.756;2023-03-01T11:35:25;13.32;;;3.03;;
63016;SDS011;50274;45.640;11.756;2023-03-01T11:38:05;8.03;;;3.10;;
63016;SDS011;50274;45.640;11.756;2023-03-01T11:41:20;33.33;;;3.95;;
63016;SDS011;50274;45.640;11.756;2023-03-01T11:43:49;17.67;;;3.20;;
63016;SDS011;50274;45.640;11.756;2023-03-01T11:52:12;11.03;;;2.63;;
63016;SDS011;50274;45.640;11.756;2023-03-01T11:55:01;13.57;;;2.80;;
63016;SDS011;50274;45.640;11.756;2023-03-01T12:36:30;13.50;;;4.18;;
63016;SDS011;50274;45.640;11.756;2023-03-01T12:39:22;10.45;;;3.97;;
63016;SDS011;50274;45.640;11.756;2023-03-01T12:50:01;11.13;;;3.60;;
63016;SDS011;50274;45.640;11.756;2023-03-01T12:52:37;10.35;;;3.15;;
63016;SDS011;50274;45.640;11.756;2023-03-01T12:55:09;11.70;;;3.25;;
63016;SDS011;50274;45.640;11.756;2023-03-01T12:57:50;15.30;;;3.55;;
63016;SDS011;50274;45.640;11.756;2023-03-01T13:06:19;13.13;;;3.10;;
63016;SDS011;50274;45.640;11.756;2023-03-01T13:08:58;9.82;;;3.00;;
63016;SDS011;50274;45.640;11.756;2023-03-01T13:11:29;9.07;;;2.72;;
63016;SDS011;50274;45.640;11.756;2023-03-01T13:16:45;11.48;;;3.60;;
63016;SDS011;50274;45.640;11.756;2023-03-01T13:21:49;9.85;;;3.25;;
63016;SDS011;50274;45.640;11.756;2023-03-01T13:32:19;8.77;;;3.40;;
63016;SDS011;50274;45.640;11.756;2023-03-01T13:35:03;10.80;;;3.80;;
63016;SDS011;50274;45.640;11.756;2023-03-01T13:37:45;25.48;;;11.65;;
63016;SDS011;50274;45.640;11.756;2023-03-01T13:42:44;10.18;;;4.35;;
63016;SDS011;50274;45.640;11.756;2023-03-01T13:48:24;9.35;;;3.85;;
63016;SDS011;50274;45.640;11.756;2023-03-01T13:50:54;8.95;;;3.63;;
63016;SDS011;50274;45.640;11.756;2023-03-01T13:53:34;8.37;;;4.03;;
63016;SDS011;50274;45.640;11.756;2023-03-01T13:58:53;8.60;;;3.50;;
63016;SDS011;50274;45.640;11.756;2023-03-01T14:01:34;10.27;;;3.47;;
63016;SDS011;50274;45.640;11.756;2023-03-01T14:04:18;8.57;;;3.22;;
63016;SDS011;50274;45.640;11.756;2023-03-01T14:06:45;8.60;;;3.40;;
63016;SDS011;50274;45.640;11.756;2023-03-01T14:14:44;9.10;;;4.00;;
63016;SDS011;50274;45.640;11.756;2023-03-01T14:20:11;9.33;;;3.63;;
63016;SDS011;50274;45.640;11.756;2023-03-01T14:22:58;9.25;;;3.30;;
63016;SDS011;50274;45.640;11.756;2023-03-01T14:25:27;9.13;;;3.42;;
63016;SDS011;50274;45.640;11.756;2023-03-01T14:27:59;8.25;;;3.40;;
63016;SDS011;50274;45.640;11.756;2023-03-01T14:33:01;7.90;;;3.57;;
63016;SDS011;50274;45.640;11.756;2023-03-01T14:35:29;9.07;;;3.50;;
63016;SDS011;50274;45.640;11.756;2023-03-01T14:37:57;10.07;;;3.92;;
63016;SDS011;50274;45.640;11.756;2023-03-01T14:42:54;11.10;;;4.28;;
63016;SDS011;50274;45.640;11.756;2023-03-01T14:45:27;8.50;;;3.80;;
63016;SDS011;50274;45.640;11.756;2023-03-01T14:47:55;8.75;;;3.80;;
63016;SDS011;50274;45.640;11.756;2023-03-01T14:50:30;8.77;;;3.55;;
63016;SDS011;50274;45.640;11.756;2023-03-01T14:53:01;10.18;;;4.18;;
63016;SDS011;50274;45.640;11.756;2023-03-01T14:55:34;11.73;;;4.20;;
63016;SDS011;50274;45.640;11.756;2023-03-01T14:58:03;8.77;;;3.90;;
63016;SDS011;50274;45.640;11.756;2023-03-01T15:00:31;9.90;;;4.00;;
63016;SDS011;50274;45.640;11.756;2023-03-01T15:03:00;9.15;;;3.45;;
63016;SDS011;50274;45.640;11.756;2023-03-01T15:05:38;9.38;;;3.40;;
63016;SDS011;50274;45.640;11.756;2023-03-01T15:08:05;9.60;;;3.30;;
63016;SDS011;50274;45.640;11.756;2023-03-01T15:10:33;9.87;;;3.30;;
63016;SDS011;50274;45.640;11.756;2023-03-01T15:13:19;11.25;;;3.67;;
63016;SDS011;50274;45.640;11.756;2023-03-01T15:15:48;8.77;;;3.75;;
63016;SDS011;50274;45.640;11.756;2023-03-01T15:20:51;16.17;;;5.57;;
63016;SDS011;50274;45.640;11.756;2023-03-01T15:25:47;10.73;;;4.72;;
63016;SDS011;50274;45.640;11.756;2023-03-01T15:28:21;13.00;;;5.60;;
63016;SDS011;50274;45.640;11.756;2023-03-01T15:30:52;11.73;;;5.30;;
63016;SDS011;50274;45.640;11.756;2023-03-01T15:35:56;10.33;;;4.73;;
63016;SDS011;50274;45.640;11.756;2023-03-01T15:38:28;13.18;;;5.20;;
63016;SDS011;50274;45.640;11.756;2023-03-01T15:41:25;10.38;;;4.85;;
63016;SDS011;50274;45.640;11.756;2023-03-01T15:43:52;16.05;;;5.55;;
63016;SDS011;50274;45.640;11.756;2023-03-01T15:48:51;12.67;;;4.57;;
63016;SDS011;50274;45.640;11.756;2023-03-01T15:51:28;8.65;;;4.18;;
63016;SDS011;50274;45.640;11.756;2023-03-01T15:54:07;11.52;;;5.18;;
63016;SDS011;50274;45.640;11.756;2023-03-01T15:56:43;11.50;;;5.40;;
63016;SDS011;50274;45.640;11.756;2023-03-01T15:59:09;11.45;;;5.43;;
63016;SDS011;50274;45.640;11.756;2023-03-01T16:01:43;12.07;;;5.93;;
63016;SDS011;50274;45.640;11.756;2023-03-01T16:04:13;13.90;;;6.70;;
63016;SDS011;50274;45.640;11.756;2023-03-01T16:06:46;13.23;;;6.50;;
63016;SDS011;50274;45.640;11.756;2023-03-01T16:09:20;14.15;;;6.70;;
63016;SDS011;50274;45.640;11.756;2023-03-01T16:11:48;13.50;;;6.00;;
63016;SDS011;50274;45.640;11.756;2023-03-01T16:14:14;11.27;;;5.53;;
63016;SDS011;50274;45.640;11.756;2023-03-01T16:16:42;15.48;;;4.75;;
63016;SDS011;50274;45.640;11.756;2023-03-01T16:19:09;10.35;;;4.32;;
63016;SDS011;50274;45.640;11.756;2023-03-01T16:21:35;10.63;;;3.15;;
63016;SDS011;50274;45.640;11.756;2023-03-01T16:24:02;8.48;;;3.13;;
63016;SDS011;50274;45.640;11.756;2023-03-01T16:26:31;6.73;;;2.70;;
63016;SDS011;50274;45.640;11.756;2023-03-01T16:28:57;8.70;;;2.20;;
63016;SDS011;50274;45.640;11.756;2023-03-01T16:31:23;5.38;;;2.50;;
63016;SDS011;50274;45.640;11.756;2023-03-01T16:33:58;7.30;;;2.77;;
63016;SDS011;50274;45.640;11.756;2023-03-01T16:36:30;7.72;;;2.80;;
63016;SDS011;50274;45.640;11.756;2023-03-01T16:39:00;9.80;;;3.10;;
63016;SDS011;50274;45.640;11.756;2023-03-01T16:41:26;9.02;;;3.63;;
63016;SDS011;50274;45.640;11.756;2023-03-01T16:43:53;10.25;;;3.90;;
63016;SDS011;50274;45.640;11.756;2023-03-01T16:46:20;8.57;;;3.90;;
63016;SDS011;50274;45.640;11.756;2023-03-01T16:48:51;9.10;;;5.00;;
63016;SDS011;50274;45.640;11.756;2023-03-01T16:51:18;8.60;;;4.43;;
63016;SDS011;50274;45.640;11.756;2023-03-01T16:53:48;7.47;;;3.50;;
63016;SDS011;50274;45.640;11.756;2023-03-01T16:56:18;7.50;;;3.23;;
63016;SDS011;50274;45.640;11.756;2023-03-01T16:58:47;8.13;;;3.20;;
63016;SDS011;50274;45.640;11.756;2023-03-01T17:01:15;7.28;;;3.20;;
63016;SDS011;50274;45.640;11.756;2023-03-01T17:03:44;6.28;;;2.75;;
63016;SDS011;50274;45.640;11.756;2023-03-01T17:06:12;7.50;;;2.88;;
63016;SDS011;50274;45.640;11.756;2023-03-01T17:08:40;7.50;;;3.27;;